Time;durP1;ratioP1;P1;durP2;ratioP2;P2;SDS_P1;SDS_P2;PMS_P1;PMS_P2;Temp;Humidity;BMP_temperature;BMP_pressure;BME280_temperature;BME280_humidity;BME280_pressure;Samples;Min_cycle;Max_cycle;Signal;HPM_P1;HPM_P2
2022/09/01 00:01:49;;;;;;;1.70;0.80;;;22.30;58.50;;;;;;5095552;28;20043;-61
2022/09/01 00:04:19;;;;;;;1.42;0.45;;;22.30;58.60;;;;;;5094181;28;20047;-61
2022/09/01 00:06:47;;;;;;;2.08;0.60;;;22.30;58.60;;;;;;5095310;28;20047;-61
2022/09/01 00:09:15;;;;;;;2.85;0.65;;;22.30;58.60;;;;;;5095302;28;20067;-61
2022/09/01 00:11:42;;;;;;;1.50;0.45;;;22.20;58.60;;;;;;5094653;28;20036;-61
2022/09/01 00:14:08;;;;;;;2.92;0.90;;;22.20;58.60;;;;;;5094760;28;20411;-61
2022/09/01 00:16:33;;;;;;;1.67;0.60;;;22.20;58.70;;;;;;5094801;28;20040;-61
2022/09/01 00:18:59;;;;;;;1.17;0.63;;;22.20;58.70;;;;;;5094274;28;20384;-61
2022/09/01 00:21:27;;;;;;;2.78;0.68;;;22.20;58.70;;;;;;5094441;28;20399;-61
2022/09/01 00:23:52;;;;;;;1.45;0.50;;;22.20;58.90;;;;;;5094740;28;20048;-61
2022/09/01 00:26:18;;;;;;;3.03;0.63;;;22.20;58.70;;;;;;5093920;28;20036;-61
2022/09/01 00:28:44;;;;;;;1.90;0.63;;;22.20;58.80;;;;;;5094692;28;20407;-61
2022/09/01 00:31:13;;;;;;;1.63;0.40;;;22.20;58.70;;;;;;5094918;28;20041;-61
2022/09/01 00:33:39;;;;;;;1.83;0.65;;;22.20;58.80;;;;;;5094337;28;20095;-61
2022/09/01 00:36:05;;;;;;;1.85;0.60;;;22.20;58.80;;;;;;5094301;28;20083;-61
2022/09/01 00:38:31;;;;;;;1.75;0.68;;;22.20;58.80;;;;;;5093135;28;20093;-61
2022/09/01 00:40:57;;;;;;;1.10;0.55;;;22.20;58.80;;;;;;5094774;28;20054;-61
2022/09/01 00:43:45;;;;;;;0.98;0.60;;;22.20;58.90;;;;;;5126657;27;20040;-61
2022/09/01 00:46:25;;;;;;;2.28;0.50;;;22.20;58.90;;;;;;5093927;28;20036;-61
2022/09/01 00:48:54;;;;;;;1.92;0.60;;;22.20;58.90;;;;;;5094492;28;20048;-61
2022/09/01 00:51:19;;;;;;;1.30;0.70;;;22.20;58.90;;;;;;5092933;28;20040;-61
2022/09/01 00:53:45;;;;;;;2.45;0.60;;;22.20;58.90;;;;;;5092456;28;20044;-61
2022/09/01 00:56:11;;;;;;;2.17;0.75;;;22.20;58.90;;;;;;5094232;28;20169;-61
2022/09/01 00:58:37;;;;;;;0.73;0.40;;;22.20;58.90;;;;;;5092866;28;20173;-61
2022/09/01 01:01:05;;;;;;;1.00;0.50;;;22.20;59.00;;;;;;5092358;28;20428;-61
2022/09/01 01:03:30;;;;;;;1.73;0.57;;;22.20;59.00;;;;;;5093869;28;20122;-61
2022/09/01 01:05:57;;;;;;;1.70;0.50;;;22.20;59.00;;;;;;5094357;28;20526;-61
2022/09/01 01:08:33;;;;;;;0.50;0.32;;;22.10;58.90;;;;;;5091769;28;20044;-61
2022/09/01 01:11:00;;;;;;;1.63;0.60;;;22.10;59.00;;;;;;5092657;28;20415;-61
2022/09/01 01:13:28;;;;;;;1.90;0.52;;;22.10;59.00;;;;;;5093138;28;20039;-61
2022/09/01 01:15:54;;;;;;;3.00;0.70;;;22.10;59.00;;;;;;5093774;28;20044;-61
2022/09/01 01:18:19;;;;;;;1.58;0.55;;;22.10;59.00;;;;;;5093733;28;20484;-61
2022/09/01 01:23:39;;;;;;;2.92;0.60;;;22.10;59.70;;;;;;5077948;28;20048;-62
2022/09/01 01:26:05;;;;;;;1.80;0.60;;;22.10;59.00;;;;;;5092738;28;20055;-61
2022/09/01 01:28:33;;;;;;;1.10;0.50;;;22.10;59.10;;;;;;5092547;28;20043;-61
2022/09/01 01:31:00;;;;;;;1.95;0.60;;;22.10;59.10;;;;;;5093863;28;20127;-61
2022/09/01 01:33:32;;;;;;;1.80;0.50;;;22.10;59.10;;;;;;5093201;28;20056;-61
2022/09/01 01:35:58;;;;;;;2.22;0.63;;;22.10;59.10;;;;;;5092882;28;20097;-61
2022/09/01 01:38:24;;;;;;;3.50;0.70;;;22.10;59.10;;;;;;5093167;28;20407;-60
2022/09/01 01:40:51;;;;;;;1.00;0.60;;;22.10;59.10;;;;;;5093488;28;20039;-61
2022/09/01 01:43:20;;;;;;;0.82;0.45;;;22.10;59.10;;;;;;5092148;28;20058;-61
2022/09/01 01:45:50;;;;;;;1.08;0.50;;;22.10;59.10;;;;;;5093481;28;20052;-61
2022/09/01 01:48:22;;;;;;;1.10;0.52;;;22.00;59.10;;;;;;5092230;28;20135;-61
2022/09/01 01:50:48;;;;;;;1.42;0.40;;;22.10;59.20;;;;;;5091579;28;20086;-61
2022/09/01 01:53:16;;;;;;;1.02;0.43;;;22.10;59.20;;;;;;5092652;28;20051;-62
2022/09/01 01:55:42;;;;;;;1.70;0.55;;;22.10;59.10;;;;;;5092544;28;20066;-62
2022/09/01 01:58:10;;;;;;;1.83;0.50;;;22.10;59.20;;;;;;5093335;28;20044;-62
2022/09/01 02:00:36;;;;;;;0.70;0.45;;;22.10;59.20;;;;;;5092358;28;20048;-61
2022/09/01 02:03:02;;;;;;;2.03;0.50;;;22.10;59.20;;;;;;5091904;28;20044;-61
2022/09/01 02:05:30;;;;;;;1.02;0.40;;;22.10;59.20;;;;;;5091954;28;20036;-61
2022/09/01 02:08:06;;;;;;;0.68;0.40;;;22.00;59.20;;;;;;5093009;28;20040;-61
2022/09/01 02:10:41;;;;;;;3.17;0.75;;;22.10;59.20;;;;;;5091901;28;20502;-62
2022/09/01 02:13:06;;;;;;;1.23;0.50;;;22.00;59.20;;;;;;5092651;28;20093;-62
2022/09/01 02:15:43;;;;;;;1.30;0.52;;;22.00;59.20;;;;;;5092149;28;20048;-61
2022/09/01 02:18:20;;;;;;;0.88;0.50;;;22.00;59.20;;;;;;5092172;28;20123;-62
2022/09/01 02:20:46;;;;;;;1.27;0.40;;;22.00;59.20;;;;;;5092669;28;20444;-61
2022/09/01 02:23:14;;;;;;;2.00;0.50;;;22.00;59.20;;;;;;5092587;28;20499;-62
2022/09/01 02:25:42;;;;;;;0.40;0.40;;;22.00;59.20;;;;;;5091908;28;20068;-61
2022/09/01 02:28:14;;;;;;;0.63;0.40;;;22.00;59.20;;;;;;5092346;28;20427;-62
2022/09/01 02:30:40;;;;;;;1.45;0.50;;;22.00;59.30;;;;;;5092698;28;20044;-61
2022/09/01 02:33:07;;;;;;;1.25;0.47;;;22.00;59.30;;;;;;5091608;28;20509;-61
2022/09/01 02:35:36;;;;;;;1.13;0.50;;;22.00;59.30;;;;;;5092501;28;20411;-62
2022/09/01 02:38:03;;;;;;;1.17;0.45;;;22.00;59.30;;;;;;5091689;28;20125;-62
2022/09/01 02:40:31;;;;;;;;;;;22.00;59.30;;;;;;5092642;28;20123;-61
2022/09/01 02:42:58;;;;;;;1.42;0.52;;;21.90;59.20;;;;;;5092788;28;19920;-62
2022/09/01 02:45:24;;;;;;;1.27;0.55;;;21.90;59.30;;;;;;5091281;28;20131;-61
2022/09/01 02:47:50;;;;;;;0.93;0.40;;;22.00;59.30;;;;;;5092795;28;20123;-62
2022/09/01 02:50:17;;;;;;;1.77;0.50;;;22.00;59.40;;;;;;5092260;28;20079;-61
2022/09/01 02:52:51;;;;;;;1.52;0.40;;;22.00;59.30;;;;;;5092023;28;20051;-62
2022/09/01 02:55:19;;;;;;;1.35;0.40;;;22.00;59.40;;;;;;5092303;28;20496;-61
2022/09/01 02:57:47;;;;;;;0.93;0.40;;;21.90;59.30;;;;;;5092689;28;20051;-61
2022/09/01 03:00:21;;;;;;;1.42;0.45;;;22.00;59.30;;;;;;5094935;28;20062;-61
2022/09/01 03:02:50;;;;;;;1.17;0.60;;;22.00;59.40;;;;;;5096507;28;20093;-62
2022/09/01 03:05:23;;;;;;;1.30;0.47;;;21.90;59.30;;;;;;5096007;28;20074;-61
2022/09/01 03:07:55;;;;;;;0.80;0.40;;;21.90;59.30;;;;;;5095969;28;20048;-62
2022/09/01 03:10:23;;;;;;;0.90;0.40;;;22.00;59.40;;;;;;5096138;28;20043;-61
2022/09/01 03:12:48;;;;;;;0.80;0.40;;;21.90;59.40;;;;;;5096522;28;20055;-61
2022/09/01 03:15:14;;;;;;;0.80;0.30;;;21.90;59.40;;;;;;5094884;28;20406;-61
2022/09/01 03:17:40;;;;;;;0.95;0.47;;;21.90;59.30;;;;;;5096147;28;20040;-61
2022/09/01 03:20:06;;;;;;;0.68;0.30;;;21.90;59.30;;;;;;5095197;28;20044;-61
2022/09/01 03:22:32;;;;;;;0.88;0.47;;;21.90;59.40;;;;;;5095968;28;20032;-61
2022/09/01 03:24:58;;;;;;;1.05;0.40;;;21.90;59.40;;;;;;5096082;28;20502;-62
2022/09/01 03:27:24;;;;;;;1.33;0.50;;;21.90;59.40;;;;;;5094940;28;20389;-61
2022/09/01 03:29:49;;;;;;;0.73;0.40;;;21.90;59.40;;;;;;5096327;28;20168;-61
2022/09/01 03:32:15;;;;;;;0.88;0.30;;;21.90;59.40;;;;;;5095553;28;20055;-62
2022/09/01 03:34:40;;;;;;;1.63;0.43;;;21.90;59.40;;;;;;5095029;28;20062;-61
2022/09/01 03:37:06;;;;;;;0.38;0.25;;;21.90;59.40;;;;;;5096039;28;20040;-62
2022/09/01 03:39:32;;;;;;;0.88;0.30;;;21.80;59.30;;;;;;5095515;28;20510;-61
2022/09/01 03:41:59;;;;;;;1.08;0.40;;;21.90;59.40;;;;;;5095095;28;20079;-62
2022/09/01 03:44:24;;;;;;;1.05;0.40;;;21.90;59.50;;;;;;5095401;28;20040;-61
2022/09/01 03:46:51;;;;;;;0.70;0.30;;;21.80;59.40;;;;;;5095795;28;20484;-61
2022/09/01 03:49:23;;;;;;;0.93;0.40;;;21.80;59.40;;;;;;5094404;28;20044;-61
2022/09/01 03:51:52;;;;;;;1.05;0.40;;;21.90;59.40;;;;;;5095596;28;20123;-62
2022/09/01 03:54:18;;;;;;;1.02;0.40;;;21.80;59.40;;;;;;5095285;28;20051;-61
2022/09/01 03:56:44;;;;;;;0.55;0.30;;;21.80;59.30;;;;;;5094960;28;20047;-61
2022/09/01 03:59:15;;;;;;;0.52;0.30;;;21.80;59.40;;;;;;5095469;28;20467;-61
2022/09/01 04:01:42;;;;;;;0.95;0.50;;;21.80;59.40;;;;;;5095004;28;20090;-61
2022/09/01 04:04:12;;;;;;;1.42;0.50;;;21.80;59.40;;;;;;5091799;28;20043;-61
2022/09/01 04:06:39;;;;;;;0.50;0.30;;;21.80;59.30;;;;;;5092824;28;20055;-61
2022/09/01 04:09:04;;;;;;;0.63;0.35;;;21.80;59.30;;;;;;5094971;28;20052;-61
2022/09/01 04:11:31;;;;;;;0.93;0.30;;;21.80;59.40;;;;;;5093331;28;20128;-62
2022/09/01 04:13:56;;;;;;;0.70;0.32;;;21.80;59.40;;;;;;5093498;28;20044;-61
2022/09/01 04:19:19;;;;;;;1.10;0.40;;;21.80;59.40;;;;;;5095042;28;20047;-61
2022/09/01 04:21:46;;;;;;;0.52;0.40;;;21.80;59.40;;;;;;5093754;28;20048;-61
2022/09/01 04:24:15;;;;;;;0.75;0.40;;;21.80;59.40;;;;;;5094222;28;20047;-61
2022/09/01 04:26:41;;;;;;;0.68;0.38;;;21.80;59.40;;;;;;5094756;28;20048;-61
2022/09/01 04:29:07;;;;;;;0.75;0.40;;;21.80;59.50;;;;;;5094896;28;20120;-61
2022/09/01 04:31:34;;;;;;;0.80;0.30;;;21.80;59.50;;;;;;5093827;28;20387;-61
2022/09/01 04:34:00;;;;;;;0.40;0.25;;;21.80;59.50;;;;;;5094525;28;20495;-61
2022/09/01 04:36:29;;;;;;;0.50;0.38;;;21.80;59.50;;;;;;5094310;28;20091;-61
2022/09/01 04:38:59;;;;;;;0.50;0.30;;;21.70;59.40;;;;;;5094075;28;20075;-61
2022/09/01 04:41:29;;;;;;;1.13;0.47;;;21.70;59.40;;;;;;5094451;28;20066;-61
2022/09/01 04:43:55;;;;;;;0.93;0.40;;;21.80;59.40;;;;;;5094321;28;20044;-61
2022/09/01 04:46:21;;;;;;;0.50;0.30;;;21.80;59.50;;;;;;5093274;28;20384;-61
2022/09/01 04:48:47;;;;;;;1.52;0.40;;;21.70;59.50;;;;;;5094665;28;20062;-61
2022/09/01 04:51:14;;;;;;;1.35;0.43;;;21.70;59.50;;;;;;5094517;28;20407;-61
2022/09/01 04:53:41;;;;;;;0.70;0.30;;;21.70;59.50;;;;;;5093258;28;20044;-61
2022/09/01 04:56:08;;;;;;;1.10;0.50;;;21.70;59.50;;;;;;5094492;28;20043;-61
2022/09/01 04:58:34;;;;;;;0.60;0.40;;;21.70;59.50;;;;;;5093204;28;20040;-62
2022/09/01 05:01:02;;;;;;;0.73;0.40;;;21.70;59.50;;;;;;5094318;28;20671;-59
2022/09/01 05:03:30;;;;;;;1.10;0.40;;;21.70;59.50;;;;;;5093560;28;20036;-59
2022/09/01 05:05:58;;;;;;;;;;;21.70;59.50;;;;;;5093676;28;20115;-59
2022/09/01 05:08:24;;;;;;;1.48;0.40;;;21.70;59.40;;;;;;5093808;28;19966;-59
2022/09/01 05:10:51;;;;;;;0.95;0.40;;;21.70;59.60;;;;;;5094152;28;20044;-59
2022/09/01 05:13:17;;;;;;;0.70;0.32;;;21.70;59.50;;;;;;5092715;28;20399;-59
2022/09/01 05:15:45;;;;;;;0.93;0.50;;;21.70;59.50;;;;;;5093946;28;20052;-60
2022/09/01 05:18:22;;;;;;;0.40;0.30;;;21.70;59.50;;;;;;5093861;28;20036;-59
2022/09/01 05:20:48;;;;;;;0.90;0.40;;;21.70;59.50;;;;;;5093056;28;20387;-59
2022/09/01 05:23:18;;;;;;;0.98;0.40;;;21.70;59.50;;;;;;5092484;28;20077;-59
2022/09/01 05:25:44;;;;;;;1.17;0.40;;;21.70;59.60;;;;;;5093442;28;20044;-59
2022/09/01 05:28:11;;;;;;;1.80;0.50;;;21.70;59.60;;;;;;5093062;28;20051;-59
2022/09/01 05:30:38;;;;;;;0.60;0.40;;;21.70;59.60;;;;;;5093212;28;20055;-59
2022/09/01 05:33:09;;;;;;;0.80;0.40;;;21.70;59.60;;;;;;5093424;28;20044;-59
2022/09/01 05:35:36;;;;;;;1.60;0.38;;;21.70;59.60;;;;;;5092788;28;20056;-59
2022/09/01 05:38:02;;;;;;;1.02;0.52;;;21.70;59.60;;;;;;5093753;28;20036;-59
2022/09/01 05:40:27;;;;;;;0.95;0.40;;;21.70;59.60;;;;;;5093015;28;20052;-59
2022/09/01 05:42:54;;;;;;;1.20;0.50;;;21.70;59.60;;;;;;5092715;28;20047;-59
2022/09/01 05:45:25;;;;;;;0.93;0.40;;;21.70;59.60;;;;;;5092803;28;20044;-59
2022/09/01 05:47:53;;;;;;;1.38;0.65;;;21.70;59.50;;;;;;5092774;28;20063;-59
2022/09/01 05:50:20;;;;;;;;;;;21.70;59.60;;;;;;5093293;28;20396;-59
2022/09/01 05:52:46;;;;;;;1.13;0.30;;;21.70;59.50;;;;;;5093433;28;19924;-59
2022/09/01 05:55:14;;;;;;;1.15;0.43;;;21.60;59.50;;;;;;5092591;28;20040;-59
2022/09/01 05:57:40;;;;;;;0.88;0.40;;;21.70;59.60;;;;;;5093331;28;20551;-58
2022/09/01 06:00:11;;;;;;;1.35;0.40;;;21.70;59.60;;;;;;5092998;28;20036;-58
2022/09/01 06:02:37;;;;;;;1.65;0.40;;;21.70;59.50;;;;;;5092187;28;20048;-59
2022/09/01 06:05:03;;;;;;;1.45;0.40;;;21.70;59.50;;;;;;5093085;28;20044;-59
2022/09/01 06:07:29;;;;;;;1.88;0.50;;;21.70;59.50;;;;;;5092701;28;20456;-64
2022/09/01 06:09:54;;;;;;;1.52;0.45;;;21.70;59.60;;;;;;5092273;28;20404;-63
2022/09/01 06:12:22;;;;;;;1.08;0.50;;;21.70;59.60;;;;;;5092889;28;20040;-61
2022/09/01 06:14:49;;;;;;;1.45;0.43;;;21.70;59.60;;;;;;5092989;28;20048;-61
2022/09/01 06:17:17;;;;;;;2.50;0.60;;;21.70;59.70;;;;;;5091950;28;20115;-61
2022/09/01 06:19:43;;;;;;;3.63;0.50;;;21.70;59.70;;;;;;5092976;28;20048;-61
2022/09/01 06:22:09;;;;;;;1.15;0.40;;;21.70;59.90;;;;;;5092721;28;20044;-59
2022/09/01 06:24:35;;;;;;;1.10;0.50;;;21.70;59.90;;;;;;5091669;28;20048;-58
2022/09/01 06:27:01;;;;;;;1.05;0.40;;;21.70;59.90;;;;;;5092769;28;20436;-58
2022/09/01 06:29:30;;;;;;;1.23;0.55;;;21.70;59.90;;;;;;5092036;28;20193;-58
2022/09/01 06:31:55;;;;;;;4.40;0.60;;;21.70;59.90;;;;;;5092173;28;20044;-58
2022/09/01 06:34:21;;;;;;;2.47;0.50;;;21.70;60.00;;;;;;5091799;28;20062;-58
2022/09/01 06:36:47;;;;;;;0.95;0.43;;;21.80;60.10;;;;;;5091229;28;20115;-58
2022/09/01 06:39:18;;;;;;;7.40;0.80;;;21.80;60.00;;;;;;5092025;28;20083;-59
2022/09/01 06:41:46;;;;;;;1.33;0.40;;;21.80;60.10;;;;;;5091999;28;20052;-59
2022/09/01 06:44:13;;;;;;;2.08;0.63;;;21.80;60.20;;;;;;5090572;28;20067;-58
2022/09/01 06:46:39;;;;;;;1.17;0.50;;;21.80;60.30;;;;;;5091132;28;20044;-58
2022/09/01 06:49:04;;;;;;;2.47;0.70;;;21.80;60.30;;;;;;5092015;28;20488;-59
2022/09/01 06:51:30;;;;;;;2.83;0.60;;;21.80;60.40;;;;;;5090845;28;20040;-59
2022/09/01 06:53:58;;;;;;;2.28;0.55;;;21.80;60.50;;;;;;5091100;28;20040;-59
2022/09/01 06:56:30;;;;;;;1.77;0.55;;;21.90;60.60;;;;;;5091908;28;20093;-59
2022/09/01 06:58:55;;;;;;;4.30;0.60;;;21.90;60.60;;;;;;5091370;28;20048;-60
2022/09/01 07:01:22;;;;;;;1.33;0.52;;;21.80;61.30;;;;;;5091778;28;20054;-59
2022/09/01 07:03:53;;;;;;;0.85;0.40;;;21.90;60.70;;;;;;5091931;28;20097;-59
2022/09/01 07:06:23;;;;;;;2.55;0.50;;;21.90;60.70;;;;;;5090000;28;20077;-60
2022/09/01 07:08:49;;;;;;;2.08;0.52;;;21.90;60.80;;;;;;5092476;28;20040;-59
2022/09/01 07:11:26;;;;;;;4.65;0.60;;;21.90;60.80;;;;;;5091787;28;20048;-59
2022/09/01 07:13:56;;;;;;;1.08;0.50;;;21.90;60.80;;;;;;5091521;28;20036;-59
2022/09/01 07:16:22;;;;;;;1.90;0.65;;;22.00;60.90;;;;;;5092323;28;20029;-59
2022/09/01 07:18:49;;;;;;;0.82;0.50;;;22.00;60.90;;;;;;5092435;28;20048;-59
2022/09/01 07:21:15;;;;;;;0.88;0.50;;;22.00;60.90;;;;;;5090933;28;20173;-59
2022/09/01 07:23:42;;;;;;;1.85;0.60;;;22.00;60.90;;;;;;5091231;28;20047;-58
2022/09/01 07:26:09;;;;;;;1.10;0.50;;;22.00;60.90;;;;;;5091847;28;20055;-58
2022/09/01 07:28:34;;;;;;;3.63;1.00;;;22.00;60.80;;;;;;5090951;28;20048;-58
2022/09/01 07:31:00;;;;;;;3.17;0.60;;;22.00;60.80;;;;;;5091604;28;20051;-59
2022/09/01 07:33:26;;;;;;;2.05;0.52;;;22.00;60.70;;;;;;5090720;28;20051;-59
2022/09/01 07:35:54;;;;;;;3.42;0.60;;;22.00;60.70;;;;;;5092117;28;20399;-58
2022/09/01 07:38:20;;;;;;;4.28;0.80;;;22.00;60.70;;;;;;5090432;28;20040;-59
2022/09/01 07:40:46;;;;;;;3.08;0.85;;;22.00;60.60;;;;;;5091247;28;20051;-59
2022/09/01 07:43:21;;;;;;;4.57;0.82;;;22.00;60.60;;;;;;5091790;28;20044;-59
2022/09/01 07:45:48;;;;;;;4.32;0.98;;;22.10;60.80;;;;;;5091970;28;20055;-59
2022/09/01 07:48:19;;;;;;;4.28;0.70;;;22.10;60.90;;;;;;5094350;28;20045;-59
2022/09/01 07:50:46;;;;;;;4.57;0.88;;;22.10;61.00;;;;;;5095297;28;20048;-59
2022/09/01 07:53:19;;;;;;;4.35;0.60;;;22.10;61.10;;;;;;5095341;28;20047;-59
2022/09/01 07:55:45;;;;;;;7.40;0.63;;;22.10;61.10;;;;;;5093287;28;20104;-58
2022/09/01 07:58:12;;;;;;;4.65;0.60;;;22.10;61.20;;;;;;5095444;28;20051;-58
2022/09/01 08:00:38;;;;;;;5.72;0.73;;;22.10;61.10;;;;;;5093299;28;20064;-58
2022/09/01 08:03:04;;;;;;;3.78;0.95;;;22.20;61.10;;;;;;5094709;28;20048;-58
2022/09/01 08:05:30;;;;;;;3.47;0.57;;;22.20;61.00;;;;;;5094985;28;20489;-59
2022/09/01 08:07:55;;;;;;;4.95;0.70;;;22.20;61.00;;;;;;5095467;28;20428;-58
2022/09/01 08:10:21;;;;;;;3.83;0.57;;;22.20;61.00;;;;;;5094188;28;20044;-58
2022/09/01 08:12:46;;;;;;;3.88;0.77;;;22.20;61.00;;;;;;5095271;28;20040;-60
2022/09/01 08:15:12;;;;;;;3.78;0.70;;;22.20;60.90;;;;;;5094782;28;20044;-61
2022/09/01 08:17:38;;;;;;;6.40;0.80;;;22.20;60.90;;;;;;5092782;28;20550;-61
2022/09/01 08:20:07;;;;;;;6.03;0.75;;;22.20;60.80;;;;;;5095149;28;20457;-61
2022/09/01 08:22:32;;;;;;;3.83;0.60;;;22.20;60.80;;;;;;5094070;28;20043;-61
2022/09/01 08:24:58;;;;;;;2.38;0.60;;;22.30;60.70;;;;;;5094753;28;20484;-61
2022/09/01 08:27:23;;;;;;;5.43;0.45;;;22.20;60.60;;;;;;5094671;28;20040;-61
2022/09/01 08:29:49;;;;;;;3.95;0.70;;;22.20;60.60;;;;;;5093751;28;20051;-61
2022/09/01 08:32:14;;;;;;;4.03;0.77;;;22.20;60.50;;;;;;5094375;28;20055;-61
2022/09/01 08:34:42;;;;;;;8.80;1.15;;;22.30;60.60;;;;;;5094497;28;20056;-61
2022/09/01 08:37:07;;;;;;;4.65;0.52;;;22.30;60.60;;;;;;5094080;28;20095;-61
2022/09/01 08:39:33;;;;;;;6.18;0.88;;;22.30;60.60;;;;;;5094378;28;20075;-61
2022/09/01 08:42:17;;;;;;;2.80;0.93;;;22.30;60.60;;;;;;5094774;28;20051;-61
2022/09/01 08:44:57;;;;;;;4.25;0.70;;;22.30;60.60;;;;;;5093407;28;20445;-61
2022/09/01 08:47:22;;;;;;;4.28;0.75;;;22.30;60.70;;;;;;5092817;28;20467;-61
2022/09/01 08:49:49;;;;;;;5.68;0.70;;;22.40;60.60;;;;;;5093279;28;20080;-61
2022/09/01 08:52:23;;;;;;;2.88;0.50;;;22.40;60.60;;;;;;5093224;28;20047;-61
2022/09/01 08:54:50;;;;;;;2.30;0.60;;;22.40;60.50;;;;;;5093330;28;20495;-61
2022/09/01 08:57:50;;;;;;;5.20;0.82;;;22.40;60.50;;;;;;5092650;28;20055;-61
2022/09/01 09:00:17;;;;;;;2.63;0.70;;;22.40;60.40;;;;;;5070157;28;20430;-61
2022/09/01 09:02:51;;;;;;;6.30;0.82;;;22.40;60.40;;;;;;5093502;28;20399;-61
2022/09/01 09:05:35;;;;;;;1.42;0.50;;;22.40;60.40;;;;;;5087464;28;20044;-60
2022/09/01 09:08:15;;;;;;;4.43;0.68;;;22.40;60.40;;;;;;5092679;28;20047;-61
2022/09/01 09:11:06;;;;;;;3.20;0.55;;;22.40;60.40;;;;;;5091382;28;20061;-61
2022/09/01 09:13:37;;;;;;;2.97;0.50;;;22.40;60.40;;;;;;5091087;28;20128;-61
2022/09/01 09:16:07;;;;;;;2.55;0.68;;;22.40;60.40;;;;;;5091969;28;20040;-61
2022/09/01 09:18:48;;;;;;;4.72;0.60;;;22.40;60.30;;;;;;5092098;28;20044;-61
2022/09/01 09:21:26;;;;;;;1.58;0.60;;;22.40;60.20;;;;;;5091941;28;20501;-62
2022/09/01 09:23:59;;;;;;;3.15;0.50;;;22.50;60.20;;;;;;5092787;28;20075;-60
2022/09/01 09:26:25;;;;;;;2.30;0.95;;;22.40;60.10;;;;;;5091575;28;20129;-61
2022/09/01 09:28:53;;;;;;;2.22;0.55;;;22.50;60.20;;;;;;5093565;28;20040;-61
2022/09/01 09:31:28;;;;;;;3.20;0.50;;;22.50;60.10;;;;;;5092393;28;20043;-61
2022/09/01 09:33:53;;;;;;;2.50;0.50;;;22.40;60.10;;;;;;5092561;28;20048;-60
2022/09/01 09:36:28;;;;;;;3.08;0.60;;;22.50;60.10;;;;;;5093341;28;20078;-61
2022/09/01 09:39:05;;;;;;;2.88;0.68;;;22.40;60.10;;;;;;5093848;28;20169;-61
2022/09/01 09:41:31;;;;;;;2.45;0.60;;;22.50;60.10;;;;;;5092150;28;20050;-61
2022/09/01 09:43:59;;;;;;;1.70;0.50;;;22.50;60.10;;;;;;5093264;28;20036;-61
2022/09/01 09:46:32;;;;;;;4.07;0.77;;;22.50;60.00;;;;;;5091341;28;20070;-61
2022/09/01 09:49:25;;;;;;;2.30;0.68;;;22.50;59.90;;;;;;5092830;28;20044;-61
2022/09/01 09:51:56;;;;;;;1.52;0.93;;;22.50;59.70;;;;;;5093130;28;20051;-62
2022/09/01 09:54:22;;;;;;;4.85;0.85;;;22.50;59.70;;;;;;5091071;28;20032;-62
2022/09/01 09:56:48;;;;;;;4.18;0.60;;;22.40;59.70;;;;;;5092329;28;20487;-62
2022/09/01 09:59:22;;;;;;;4.30;0.70;;;22.50;59.80;;;;;;5092433;28;20048;-62
2022/09/01 10:01:50;;;;;;;3.88;0.82;;;22.50;60.00;;;;;;5090595;28;20593;-60
2022/09/01 10:04:30;;;;;;;4.88;0.93;;;22.50;60.20;;;;;;5090517;28;20045;-60
2022/09/01 10:06:56;;;;;;;4.13;1.00;;;22.50;60.30;;;;;;5092837;28;20083;-63
2022/09/01 10:09:21;;;;;;;3.65;1.02;;;22.50;60.20;;;;;;5088739;28;20491;-63
2022/09/01 10:11:54;;;;;;;2.50;0.80;;;22.50;60.30;;;;;;5093090;28;20043;-63
2022/09/01 10:14:24;;;;;;;5.55;0.70;;;22.50;60.60;;;;;;5074418;28;20059;-63
2022/09/01 10:16:53;;;;;;;4.80;1.00;;;22.50;61.20;;;;;;5090678;28;20047;-63
2022/09/01 10:19:18;;;;;;;2.42;1.23;;;22.50;60.70;;;;;;5074588;28;20071;-63
2022/09/01 10:21:44;;;;;;;2.72;0.80;;;22.50;60.70;;;;;;5074539;28;20083;-62
2022/09/01 10:24:19;;;;;;;3.17;0.90;;;22.50;60.70;;;;;;5091381;28;20395;-63
2022/09/01 10:26:46;;;;;;;2.40;0.90;;;22.50;60.70;;;;;;5091422;28;20036;-63
2022/09/01 10:29:39;;;;;;;5.78;1.45;;;22.50;60.60;;;;;;5089753;28;20570;-62
2022/09/01 10:32:11;;;;;;;2.92;0.88;;;22.50;60.70;;;;;;5090118;28;20083;-62
2022/09/01 10:34:37;;;;;;;3.00;0.70;;;22.50;60.70;;;;;;5091190;28;20049;-62
2022/09/01 10:37:03;;;;;;;2.75;0.80;;;22.50;60.50;;;;;;5090399;28;20048;-62
2022/09/01 10:39:29;;;;;;;1.92;0.80;;;22.50;60.40;;;;;;5091112;28;20051;-62
2022/09/01 10:42:05;;;;;;;3.03;0.80;;;22.60;60.30;;;;;;5092913;28;20040;-62
2022/09/01 10:44:35;;;;;;;5.53;0.90;;;22.50;60.20;;;;;;5090403;28;20493;-62
2022/09/01 10:47:28;;;;;;;2.58;0.80;;;22.60;60.30;;;;;;5092841;28;20050;-62
2022/09/01 10:49:54;;;;;;;1.77;0.70;;;22.60;60.20;;;;;;5091387;28;20090;-62
2022/09/01 10:52:41;;;;;;;2.20;0.60;;;22.60;60.20;;;;;;5091512;28;20044;-62
2022/09/01 10:55:38;;;;;;;2.50;0.80;;;22.60;60.10;;;;;;5092023;28;20581;-62
2022/09/01 10:58:12;;;;;;;4.28;1.00;;;22.60;60.00;;;;;;5079191;28;20052;-62
2022/09/01 11:00:37;;;;;;;5.05;0.60;;;22.60;60.00;;;;;;5091220;28;20040;-62
2022/09/01 11:03:12;;;;;;;1.80;0.77;;;22.60;60.00;;;;;;5091457;28;20059;-62
2022/09/01 11:05:53;;;;;;;2.22;1.00;;;22.60;60.00;;;;;;5088863;28;20040;-63
2022/09/01 11:08:25;;;;;;;3.92;0.77;;;22.60;59.90;;;;;;5088568;28;20043;-62
2022/09/01 11:10:59;;;;;;;2.75;0.70;;;22.60;59.80;;;;;;5091586;28;20083;-63
2022/09/01 11:13:43;;;;;;;4.63;0.93;;;22.70;59.80;;;;;;5087834;28;20043;-63
2022/09/01 11:16:31;;;;;;;2.13;0.60;;;22.70;59.60;;;;;;5090351;28;20492;-62
2022/09/01 11:19:33;;;;;;;2.65;0.73;;;22.70;59.40;;;;;;5088692;28;20134;-62
2022/09/01 11:22:27;;;;;;;4.75;0.82;;;22.60;59.40;;;;;;5092855;28;20036;-60
2022/09/01 11:25:13;;;;;;;1.70;0.70;;;22.60;59.30;;;;;;5093245;28;20757;-61
2022/09/01 11:27:47;;;;;;;5.32;0.77;;;22.60;59.20;;;;;;5093453;28;20051;-61
2022/09/01 11:30:21;;;;;;;4.28;0.70;;;22.60;59.20;;;;;;5095447;28;20143;-61
2022/09/01 11:32:49;;;;;;;2.95;0.80;;;22.60;59.20;;;;;;5094856;28;20040;-61
2022/09/01 11:35:20;;;;;;;1.35;0.50;;;22.60;59.20;;;;;;5093709;28;20052;-61
2022/09/01 11:37:54;;;;;;;2.72;0.73;;;22.60;59.20;;;;;;5095332;28;20146;-61
2022/09/01 11:40:22;;;;;;;1.45;0.63;;;22.60;59.10;;;;;;5073455;28;20043;-61
2022/09/01 11:42:47;;;;;;;3.28;0.60;;;22.70;59.20;;;;;;5094194;28;20048;-61
2022/09/01 11:45:15;;;;;;;2.50;0.50;;;22.70;59.20;;;;;;5094095;28;20044;-61
2022/09/01 11:47:43;;;;;;;2.25;0.68;;;22.70;59.10;;;;;;5092407;28;20051;-61
2022/09/01 11:50:19;;;;;;;3.05;0.73;;;22.70;59.10;;;;;;5095343;28;20043;-61
2022/09/01 11:52:56;;;;;;;2.05;0.65;;;22.70;59.10;;;;;;5092350;28;20097;-61
2022/09/01 11:55:29;;;;;;;3.22;0.45;;;22.70;59.00;;;;;;5090377;28;20055;-61
2022/09/01 11:57:55;;;;;;;2.42;0.60;;;22.70;59.00;;;;;;5093626;28;20057;-61
2022/09/01 12:00:32;;;;;;;2.72;0.60;;;22.70;59.00;;;;;;5094798;28;20503;-62
2022/09/01 12:02:58;;;;;;;2.03;0.63;;;22.70;59.60;;;;;;5095282;28;20048;-61
2022/09/01 12:05:34;;;;;;;5.35;0.95;;;22.70;59.60;;;;;;5094944;28;20051;-61
2022/09/01 12:08:02;;;;;;;2.58;0.60;;;22.70;58.80;;;;;;5094722;28;20040;-61
2022/09/01 12:10:37;;;;;;;;;;;22.70;58.80;;;;;;5093893;28;20044;-61
2022/09/01 12:13:06;;;;;;;1.77;0.47;;;22.70;58.80;;;;;;5095280;28;19920;-62
2022/09/01 12:15:33;;;;;;;1.65;0.55;;;22.70;58.80;;;;;;5094407;28;20160;-62
2022/09/01 12:18:18;;;;;;;2.03;0.60;;;22.70;58.70;;;;;;5095183;28;20055;-62
2022/09/01 12:20:44;;;;;;;2.28;0.85;;;22.70;58.70;;;;;;5095442;28;20574;-61
2022/09/01 12:23:24;;;;;;;1.98;0.60;;;22.70;58.70;;;;;;5093068;28;20048;-61
2022/09/01 12:25:50;;;;;;;0.95;0.63;;;22.70;58.70;;;;;;5093701;28;20446;-61
2022/09/01 12:28:15;;;;;;;1.27;0.63;;;22.70;58.70;;;;;;5076626;28;20141;-61
2022/09/01 12:30:42;;;;;;;0.88;0.50;;;22.70;58.70;;;;;;5094073;28;20044;-61
2022/09/01 12:33:10;;;;;;;1.77;0.60;;;22.70;58.80;;;;;;5093863;28;20086;-61
2022/09/01 12:35:35;;;;;;;0.77;0.43;;;22.70;59.50;;;;;;5093635;28;20059;-61
2022/09/01 12:38:19;;;;;;;2.83;0.73;;;22.70;58.70;;;;;;5093837;28;20048;-61
2022/09/01 12:40:46;;;;;;;2.03;0.57;;;22.70;58.50;;;;;;5094778;28;20131;-61
2022/09/01 12:43:35;;;;;;;1.95;0.50;;;22.70;58.50;;;;;;5093617;28;20453;-61
2022/09/01 12:46:03;;;;;;;1.50;0.50;;;22.70;58.40;;;;;;5093597;28;20079;-61
2022/09/01 12:48:38;;;;;;;1.65;0.55;;;22.70;58.40;;;;;;5094116;28;20048;-61
2022/09/01 12:51:22;;;;;;;2.78;0.65;;;22.70;58.50;;;;;;5093912;28;20419;-62
2022/09/01 12:54:06;;;;;;;2.70;0.60;;;22.70;58.50;;;;;;5077274;28;20126;-62
2022/09/01 12:56:33;;;;;;;1.73;0.70;;;22.70;58.30;;;;;;5094136;28;20118;-62
2022/09/01 12:59:08;;;;;;;1.33;0.60;;;22.70;58.40;;;;;;5093524;28;20092;-62
2022/09/01 13:01:34;;;;;;;1.55;0.50;;;22.70;58.20;;;;;;5094007;28;20507;-61
2022/09/01 13:04:07;;;;;;;1.25;0.50;;;22.70;58.30;;;;;;5092253;28;20043;-62
2022/09/01 13:06:32;;;;;;;0.90;0.50;;;22.70;58.30;;;;;;5093816;28;20391;-62